sensor_id;sensor_type;location;lat;lon;timestamp;temperature;humidity
50544;DHT22;41176;44.032;20.900;2023-12-20T00:01:25;5.40;99.90
50544;DHT22;41176;44.032;20.900;2023-12-20T00:03:51;5.40;99.90
50544;DHT22;41176;44.032;20.900;2023-12-20T00:06:17;5.40;99.90
50544;DHT22;41176;44.032;20.900;2023-12-20T00:08:42;5.40;99.90
50544;DHT22;41176;44.032;20.900;2023-12-20T00:11:09;5.40;99.90
50544;DHT22;41176;44.032;20.900;2023-12-20T00:13:35;5.30;99.90
50544;DHT22;41176;44.032;20.900;2023-12-20T00:16:00;5.30;99.90
50544;DHT22;41176;44.032;20.900;2023-12-20T00:18:26;5.30;99.90
50544;DHT22;41176;44.032;20.900;2023-12-20T00:20:52;5.20;99.90
50544;DHT22;41176;44.032;20.900;2023-12-20T00:23:18;5.20;99.90
50544;DHT22;41176;44.032;20.900;2023-12-20T00:25:43;5.30;99.90
50544;DHT22;41176;44.032;20.900;2023-12-20T00:28:09;5.20;99.90
50544;DHT22;41176;44.032;20.900;2023-12-20T00:30:35;5.30;99.90
50544;DHT22;41176;44.032;20.900;2023-12-20T00:33:01;5.20;99.90
50544;DHT22;41176;44.032;20.900;2023-12-20T00:35:27;5.20;99.90
50544;DHT22;41176;44.032;20.900;2023-12-20T00:37:53;5.10;99.90
50544;DHT22;41176;44.032;20.900;2023-12-20T00:40:19;5.00;99.90
50544;DHT22;41176;44.032;20.900;2023-12-20T00:42:46;4.90;99.90
50544;DHT22;41176;44.032;20.900;2023-12-20T00:45:12;4.80;99.90
50544;DHT22;41176;44.032;20.900;2023-12-20T00:47:38;4.70;99.90
50544;DHT22;41176;44.032;20.900;2023-12-20T00:50:04;4.70;99.90
50544;DHT22;41176;44.032;20.900;2023-12-20T00:52:30;4.70;99.90
50544;DHT22;41176;44.032;20.900;2023-12-20T00:54:56;4.70;99.90
50544;DHT22;41176;44.032;20.900;2023-12-20T00:57:21;4.70;99.90
50544;DHT22;41176;44.032;20.900;2023-12-20T00:59:47;4.70;99.90
50544;DHT22;41176;44.032;20.900;2023-12-20T01:02:13;4.70;99.90
50544;DHT22;41176;44.032;20.900;2023-12-20T01:04:39;4.70;99.90
50544;DHT22;41176;44.032;20.900;2023-12-20T01:07:04;4.60;99.90
50544;DHT22;41176;44.032;20.900;2023-12-20T01:09:30;4.60;99.90
50544;DHT22;41176;44.032;20.900;2023-12-20T01:11:56;4.60;99.90
50544;DHT22;41176;44.032;20.900;2023-12-20T01:14:22;4.60;99.90
50544;DHT22;41176;44.032;20.900;2023-12-20T01:16:47;4.50;99.90
50544;DHT22;41176;44.032;20.900;2023-12-20T01:19:13;4.60;99.90
50544;DHT22;41176;44.032;20.900;2023-12-20T01:21:40;4.50;99.90
50544;DHT22;41176;44.032;20.900;2023-12-20T01:24:06;4.50;99.90
50544;DHT22;41176;44.032;20.900;2023-12-20T01:26:31;4.50;99.90
50544;DHT22;41176;44.032;20.900;2023-12-20T01:28:57;4.50;99.90
50544;DHT22;41176;44.032;20.900;2023-12-20T01:31:23;4.40;99.90
50544;DHT22;41176;44.032;20.900;2023-12-20T01:33:49;4.30;99.90
50544;DHT22;41176;44.032;20.900;2023-12-20T01:36:14;4.30;99.90
50544;DHT22;41176;44.032;20.900;2023-12-20T01:38:41;4.20;99.90
50544;DHT22;41176;44.032;20.900;2023-12-20T01:41:06;4.10;99.90
50544;DHT22;41176;44.032;20.900;2023-12-20T01:43:32;4.10;99.90
50544;DHT22;41176;44.032;20.900;2023-12-20T01:45:58;4.20;99.90
50544;DHT22;41176;44.032;20.900;2023-12-20T01:48:25;4.10;99.90
50544;DHT22;41176;44.032;20.900;2023-12-20T01:50:51;4.10;99.90
50544;DHT22;41176;44.032;20.900;2023-12-20T01:53:19;4.10;99.90
50544;DHT22;41176;44.032;20.900;2023-12-20T01:55:45;4.10;99.90
50544;DHT22;41176;44.032;20.900;2023-12-20T01:58:12;4.20;99.90
50544;DHT22;41176;44.032;20.900;2023-12-20T02:00:39;4.20;99.90
50544;DHT22;41176;44.032;20.900;2023-12-20T02:03:05;4.10;99.90
50544;DHT22;41176;44.032;20.900;2023-12-20T02:05:31;4.20;99.90
50544;DHT22;41176;44.032;20.900;2023-12-20T02:07:57;4.20;99.90
50544;DHT22;41176;44.032;20.900;2023-12-20T02:10:24;4.10;99.90
50544;DHT22;41176;44.032;20.900;2023-12-20T02:12:50;4.10;99.90
50544;DHT22;41176;44.032;20.900;2023-12-20T02:15:15;4.10;99.90
50544;DHT22;41176;44.032;20.900;2023-12-20T02:17:41;4.10;99.90
50544;DHT22;41176;44.032;20.900;2023-12-20T02:20:07;4.20;99.90
50544;DHT22;41176;44.032;20.900;2023-12-20T02:22:33;4.20;99.90
50544;DHT22;41176;44.032;20.900;2023-12-20T02:24:58;4.20;99.90
50544;DHT22;41176;44.032;20.900;2023-12-20T02:27:24;4.30;99.90
50544;DHT22;41176;44.032;20.900;2023-12-20T02:29:50;4.30;99.90
50544;DHT22;41176;44.032;20.900;2023-12-20T02:32:17;4.30;99.90
50544;DHT22;41176;44.032;20.900;2023-12-20T02:34:43;4.30;99.90
50544;DHT22;41176;44.032;20.900;2023-12-20T02:37:09;4.40;99.90
50544;DHT22;41176;44.032;20.900;2023-12-20T02:39:35;4.40;99.90
50544;DHT22;41176;44.032;20.900;2023-12-20T02:42:01;4.40;99.90
50544;DHT22;41176;44.032;20.900;2023-12-20T02:44:26;4.40;99.90
50544;DHT22;41176;44.032;20.900;2023-12-20T02:46:52;4.40;99.90
50544;DHT22;41176;44.032;20.900;2023-12-20T02:49:18;4.40;99.90
50544;DHT22;41176;44.032;20.900;2023-12-20T02:51:43;4.50;99.90
50544;DHT22;41176;44.032;20.900;2023-12-20T02:54:09;4.50;99.90
50544;DHT22;41176;44.032;20.900;2023-12-20T02:56:35;4.50;99.90
50544;DHT22;41176;44.032;20.900;2023-12-20T02:59:01;4.50;99.90
50544;DHT22;41176;44.032;20.900;2023-12-20T03:01:28;4.50;99.90
50544;DHT22;41176;44.032;20.900;2023-12-20T03:03:54;4.60;99.90
50544;DHT22;41176;44.032;20.900;2023-12-20T03:06:20;4.60;99.90
50544;DHT22;41176;44.032;20.900;2023-12-20T03:08:46;4.60;99.90
50544;DHT22;41176;44.032;20.900;2023-12-20T03:11:12;4.60;99.90
50544;DHT22;41176;44.032;20.900;2023-12-20T03:13:38;4.50;99.90
50544;DHT22;41176;44.032;20.900;2023-12-20T03:16:10;4.60;99.90
50544;DHT22;41176;44.032;20.900;2023-12-20T03:18:36;4.60;99.90
50544;DHT22;41176;44.032;20.900;2023-12-20T03:21:02;4.60;99.90
50544;DHT22;41176;44.032;20.900;2023-12-20T03:23:29;4.60;99.90
50544;DHT22;41176;44.032;20.900;2023-12-20T03:25:56;4.60;99.90
50544;DHT22;41176;44.032;20.900;2023-12-20T03:28:22;4.60;99.90
50544;DHT22;41176;44.032;20.900;2023-12-20T03:30:48;4.50;99.90
50544;DHT22;41176;44.032;20.900;2023-12-20T03:33:14;4.50;99.90
50544;DHT22;41176;44.032;20.900;2023-12-20T03:35:40;4.60;99.90
50544;DHT22;41176;44.032;20.900;2023-12-20T03:38:06;4.60;99.90
50544;DHT22;41176;44.032;20.900;2023-12-20T03:40:32;4.50;99.90
50544;DHT22;41176;44.032;20.900;2023-12-20T03:42:58;4.50;99.90
50544;DHT22;41176;44.032;20.900;2023-12-20T03:45:24;4.50;99.90
50544;DHT22;41176;44.032;20.900;2023-12-20T03:47:49;4.50;99.90
50544;DHT22;41176;44.032;20.900;2023-12-20T03:50:15;4.50;99.90
50544;DHT22;41176;44.032;20.900;2023-12-20T03:52:41;4.60;99.90
50544;DHT22;41176;44.032;20.900;2023-12-20T03:55:07;4.50;99.90
50544;DHT22;41176;44.032;20.900;2023-12-20T03:57:32;4.50;99.90
50544;DHT22;41176;44.032;20.900;2023-12-20T03:59:58;4.50;99.90
50544;DHT22;41176;44.032;20.900;2023-12-20T04:02:24;4.40;99.90
50544;DHT22;41176;44.032;20.900;2023-12-20T04:04:50;4.40;99.90
50544;DHT22;41176;44.032;20.900;2023-12-20T04:07:18;4.40;99.90
50544;DHT22;41176;44.032;20.900;2023-12-20T04:09:44;4.30;99.90
50544;DHT22;41176;44.032;20.900;2023-12-20T04:12:10;4.30;99.90
50544;DHT22;41176;44.032;20.900;2023-12-20T04:14:35;4.40;99.90
50544;DHT22;41176;44.032;20.900;2023-12-20T04:17:01;4.40;99.90
50544;DHT22;41176;44.032;20.900;2023-12-20T04:19:27;4.40;99.90
50544;DHT22;41176;44.032;20.900;2023-12-20T04:21:53;4.40;99.90
50544;DHT22;41176;44.032;20.900;2023-12-20T04:24:18;4.50;99.90
50544;DHT22;41176;44.032;20.900;2023-12-20T04:26:44;4.60;99.90
50544;DHT22;41176;44.032;20.900;2023-12-20T04:29:10;4.50;99.90
50544;DHT22;41176;44.032;20.900;2023-12-20T04:31:35;4.50;99.90
50544;DHT22;41176;44.032;20.900;2023-12-20T04:34:01;4.50;99.90
50544;DHT22;41176;44.032;20.900;2023-12-20T04:36:27;4.50;99.90
50544;DHT22;41176;44.032;20.900;2023-12-20T04:38:55;4.40;99.90
50544;DHT22;41176;44.032;20.900;2023-12-20T04:41:21;4.40;99.90
50544;DHT22;41176;44.032;20.900;2023-12-20T04:43:46;4.50;99.90
50544;DHT22;41176;44.032;20.900;2023-12-20T04:46:12;4.50;99.90
50544;DHT22;41176;44.032;20.900;2023-12-20T04:48:38;4.60;99.90
50544;DHT22;41176;44.032;20.900;2023-12-20T04:51:04;4.70;99.90
50544;DHT22;41176;44.032;20.900;2023-12-20T04:53:30;4.70;99.90
50544;DHT22;41176;44.032;20.900;2023-12-20T04:55:55;4.80;99.90
50544;DHT22;41176;44.032;20.900;2023-12-20T04:58:21;4.80;99.90
50544;DHT22;41176;44.032;20.900;2023-12-20T05:00:47;4.80;99.90
50544;DHT22;41176;44.032;20.900;2023-12-20T05:03:12;4.80;99.90
50544;DHT22;41176;44.032;20.900;2023-12-20T05:05:39;4.90;99.90
50544;DHT22;41176;44.032;20.900;2023-12-20T05:08:05;4.90;99.90
50544;DHT22;41176;44.032;20.900;2023-12-20T05:10:30;4.90;99.90
50544;DHT22;41176;44.032;20.900;2023-12-20T05:12:56;4.90;99.90
50544;DHT22;41176;44.032;20.900;2023-12-20T05:15:22;5.00;99.90
50544;DHT22;41176;44.032;20.900;2023-12-20T05:17:47;5.00;99.90
50544;DHT22;41176;44.032;20.900;2023-12-20T05:20:13;5.10;99.90
50544;DHT22;41176;44.032;20.900;2023-12-20T05:22:40;5.20;99.90
50544;DHT22;41176;44.032;20.900;2023-12-20T05:25:06;5.20;99.90
50544;DHT22;41176;44.032;20.900;2023-12-20T05:27:32;5.20;99.90
50544;DHT22;41176;44.032;20.900;2023-12-20T05:29:58;5.30;99.90
50544;DHT22;41176;44.032;20.900;2023-12-20T05:32:24;5.30;99.90
50544;DHT22;41176;44.032;20.900;2023-12-20T05:34:49;5.20;99.90
50544;DHT22;41176;44.032;20.900;2023-12-20T05:37:15;5.30;99.90
50544;DHT22;41176;44.032;20.900;2023-12-20T05:39:41;5.30;99.90
50544;DHT22;41176;44.032;20.900;2023-12-20T05:42:06;5.30;99.90
50544;DHT22;41176;44.032;20.900;2023-12-20T05:44:32;5.30;99.90
50544;DHT22;41176;44.032;20.900;2023-12-20T05:46:58;5.30;99.90
50544;DHT22;41176;44.032;20.900;2023-12-20T05:49:23;5.50;99.90
50544;DHT22;41176;44.032;20.900;2023-12-20T05:51:49;5.50;99.90
50544;DHT22;41176;44.032;20.900;2023-12-20T05:54:16;5.40;99.90
50544;DHT22;41176;44.032;20.900;2023-12-20T05:56:42;5.40;99.90
50544;DHT22;41176;44.032;20.900;2023-12-20T05:59:08;5.50;99.90
50544;DHT22;41176;44.032;20.900;2023-12-20T06:01:37;5.50;99.90
50544;DHT22;41176;44.032;20.900;2023-12-20T06:04:03;5.50;99.90
50544;DHT22;41176;44.032;20.900;2023-12-20T06:06:29;5.50;99.90
50544;DHT22;41176;44.032;20.900;2023-12-20T06:08:56;5.50;99.90
50544;DHT22;41176;44.032;20.900;2023-12-20T06:11:21;5.50;99.90
50544;DHT22;41176;44.032;20.900;2023-12-20T06:13:47;5.40;99.90
50544;DHT22;41176;44.032;20.900;2023-12-20T06:16:14;5.20;99.90
50544;DHT22;41176;44.032;20.900;2023-12-20T06:18:40;5.20;99.90
50544;DHT22;41176;44.032;20.900;2023-12-20T06:21:06;5.30;99.90
50544;DHT22;41176;44.032;20.900;2023-12-20T06:23:33;5.20;99.90
50544;DHT22;41176;44.032;20.900;2023-12-20T06:25:59;5.20;99.90
50544;DHT22;41176;44.032;20.900;2023-12-20T06:28:24;5.20;99.90
50544;DHT22;41176;44.032;20.900;2023-12-20T06:30:50;5.40;99.90
50544;DHT22;41176;44.032;20.900;2023-12-20T06:33:17;5.40;99.90
50544;DHT22;41176;44.032;20.900;2023-12-20T06:35:44;5.40;99.90
50544;DHT22;41176;44.032;20.900;2023-12-20T06:38:10;5.40;99.90
50544;DHT22;41176;44.032;20.900;2023-12-20T06:40:35;5.40;99.90
50544;DHT22;41176;44.032;20.900;2023-12-20T06:43:01;5.50;99.90
50544;DHT22;41176;44.032;20.900;2023-12-20T06:45:27;5.40;99.90
50544;DHT22;41176;44.032;20.900;2023-12-20T06:47:52;5.40;99.90
50544;DHT22;41176;44.032;20.900;2023-12-20T06:50:20;5.40;99.90
50544;DHT22;41176;44.032;20.900;2023-12-20T06:52:46;5.40;99.90
50544;DHT22;41176;44.032;20.900;2023-12-20T06:55:12;5.40;99.90
50544;DHT22;41176;44.032;20.900;2023-12-20T06:57:37;5.40;99.90
50544;DHT22;41176;44.032;20.900;2023-12-20T07:00:04;5.40;99.90
50544;DHT22;41176;44.032;20.900;2023-12-20T07:02:30;5.40;99.90
50544;DHT22;41176;44.032;20.900;2023-12-20T07:04:57;5.40;99.90
50544;DHT22;41176;44.032;20.900;2023-12-20T07:07:22;5.40;99.90
50544;DHT22;41176;44.032;20.900;2023-12-20T07:09:50;5.60;99.90
50544;DHT22;41176;44.032;20.900;2023-12-20T07:12:15;5.60;99.90
50544;DHT22;41176;44.032;20.900;2023-12-20T07:14:41;5.60;99.90
50544;DHT22;41176;44.032;20.900;2023-12-20T07:17:07;5.70;99.90
50544;DHT22;41176;44.032;20.900;2023-12-20T07:19:37;5.70;99.90
50544;DHT22;41176;44.032;20.900;2023-12-20T07:22:05;5.60;99.90
50544;DHT22;41176;44.032;20.900;2023-12-20T07:24:30;5.60;99.90
50544;DHT22;41176;44.032;20.900;2023-12-20T07:26:56;5.60;99.90
50544;DHT22;41176;44.032;20.900;2023-12-20T07:29:22;5.70;99.90
50544;DHT22;41176;44.032;20.900;2023-12-20T07:31:48;5.60;99.90
50544;DHT22;41176;44.032;20.900;2023-12-20T07:34:13;5.60;99.90
50544;DHT22;41176;44.032;20.900;2023-12-20T07:36:39;5.70;99.90
50544;DHT22;41176;44.032;20.900;2023-12-20T07:39:05;5.70;99.90
50544;DHT22;41176;44.032;20.900;2023-12-20T07:41:31;5.60;99.90
50544;DHT22;41176;44.032;20.900;2023-12-20T07:43:56;5.70;99.90
50544;DHT22;41176;44.032;20.900;2023-12-20T07:46:22;5.70;99.90
50544;DHT22;41176;44.032;20.900;2023-12-20T07:48:49;5.80;99.90
50544;DHT22;41176;44.032;20.900;2023-12-20T07:51:14;5.90;99.90
50544;DHT22;41176;44.032;20.900;2023-12-20T07:53:40;5.90;99.90
50544;DHT22;41176;44.032;20.900;2023-12-20T07:56:19;5.90;99.90
50544;DHT22;41176;44.032;20.900;2023-12-20T07:58:45;6.00;99.90
50544;DHT22;41176;44.032;20.900;2023-12-20T08:01:11;6.10;99.90
50544;DHT22;41176;44.032;20.900;2023-12-20T08:03:38;6.20;99.90
50544;DHT22;41176;44.032;20.900;2023-12-20T08:06:04;6.30;99.90
50544;DHT22;41176;44.032;20.900;2023-12-20T08:08:30;6.40;99.90
50544;DHT22;41176;44.032;20.900;2023-12-20T08:10:56;6.40;99.90
50544;DHT22;41176;44.032;20.900;2023-12-20T08:13:24;6.40;99.90
50544;DHT22;41176;44.032;20.900;2023-12-20T08:15:52;6.60;99.90
50544;DHT22;41176;44.032;20.900;2023-12-20T08:18:17;6.90;99.90
50544;DHT22;41176;44.032;20.900;2023-12-20T08:20:43;7.10;99.90
50544;DHT22;41176;44.032;20.900;2023-12-20T08:23:09;7.20;99.90
50544;DHT22;41176;44.032;20.900;2023-12-20T08:25:35;7.30;99.90
50544;DHT22;41176;44.032;20.900;2023-12-20T08:28:02;7.50;99.90
50544;DHT22;41176;44.032;20.900;2023-12-20T08:30:28;7.70;99.90
50544;DHT22;41176;44.032;20.900;2023-12-20T08:32:55;7.80;99.90
50544;DHT22;41176;44.032;20.900;2023-12-20T08:35:21;7.90;99.90
50544;DHT22;41176;44.032;20.900;2023-12-20T08:37:46;7.90;99.90
50544;DHT22;41176;44.032;20.900;2023-12-20T08:40:12;8.10;99.90
50544;DHT22;41176;44.032;20.900;2023-12-20T08:42:39;8.40;99.90
50544;DHT22;41176;44.032;20.900;2023-12-20T08:45:05;8.70;99.90
50544;DHT22;41176;44.032;20.900;2023-12-20T08:47:30;8.80;99.40
50544;DHT22;41176;44.032;20.900;2023-12-20T08:49:56;8.70;99.90
50544;DHT22;41176;44.032;20.900;2023-12-20T08:52:24;8.80;99.60
50544;DHT22;41176;44.032;20.900;2023-12-20T08:54:52;8.90;98.40
50544;DHT22;41176;44.032;20.900;2023-12-20T08:57:22;9.10;98.40
50544;DHT22;41176;44.032;20.900;2023-12-20T08:59:49;9.50;95.50
50544;DHT22;41176;44.032;20.900;2023-12-20T09:02:16;9.70;93.90
50544;DHT22;41176;44.032;20.900;2023-12-20T09:04:42;9.90;91.50
50544;DHT22;41176;44.032;20.900;2023-12-20T09:07:27;9.80;91.10
50544;DHT22;41176;44.032;20.900;2023-12-20T09:09:55;9.70;91.20
50544;DHT22;41176;44.032;20.900;2023-12-20T09:12:20;9.60;91.30
50544;DHT22;41176;44.032;20.900;2023-12-20T09:14:47;9.40;91.40
50544;DHT22;41176;44.032;20.900;2023-12-20T09:17:13;9.50;92.20
50544;DHT22;41176;44.032;20.900;2023-12-20T09:19:39;9.60;91.70
50544;DHT22;41176;44.032;20.900;2023-12-20T09:22:05;9.50;92.00
50544;DHT22;41176;44.032;20.900;2023-12-20T09:24:31;9.30;92.50
50544;DHT22;41176;44.032;20.900;2023-12-20T09:26:57;9.10;93.50
50544;DHT22;41176;44.032;20.900;2023-12-20T09:29:23;9.10;93.80
50544;DHT22;41176;44.032;20.900;2023-12-20T09:31:50;9.00;93.90
50544;DHT22;41176;44.032;20.900;2023-12-20T09:34:16;8.90;93.60
50544;DHT22;41176;44.032;20.900;2023-12-20T09:36:45;8.80;93.60
50544;DHT22;41176;44.032;20.900;2023-12-20T09:39:14;8.80;93.90
50544;DHT22;41176;44.032;20.900;2023-12-20T09:41:43;9.00;93.20
50544;DHT22;41176;44.032;20.900;2023-12-20T09:44:14;9.00;92.90
50544;DHT22;41176;44.032;20.900;2023-12-20T09:46:44;9.20;92.50
50544;DHT22;41176;44.032;20.900;2023-12-20T09:49:10;9.30;92.30
50544;DHT22;41176;44.032;20.900;2023-12-20T09:51:36;9.30;92.30
50544;DHT22;41176;44.032;20.900;2023-12-20T09:54:05;9.40;92.30
50544;DHT22;41176;44.032;20.900;2023-12-20T09:56:31;9.60;92.10
50544;DHT22;41176;44.032;20.900;2023-12-20T09:58:57;9.80;91.40
50544;DHT22;41176;44.032;20.900;2023-12-20T10:01:23;10.10;90.90
50544;DHT22;41176;44.032;20.900;2023-12-20T10:03:51;10.50;90.10
50544;DHT22;41176;44.032;20.900;2023-12-20T10:06:19;11.40;86.60
50544;DHT22;41176;44.032;20.900;2023-12-20T10:08:45;13.30;79.90
50544;DHT22;41176;44.032;20.900;2023-12-20T10:11:11;16.00;72.60
50544;DHT22;41176;44.032;20.900;2023-12-20T10:13:41;18.90;63.40
50544;DHT22;41176;44.032;20.900;2023-12-20T10:16:07;18.90;57.70
50544;DHT22;41176;44.032;20.900;2023-12-20T10:18:33;19.00;57.20
50544;DHT22;41176;44.032;20.900;2023-12-20T10:20:59;18.80;56.00
50544;DHT22;41176;44.032;20.900;2023-12-20T10:23:26;17.40;58.80
50544;DHT22;41176;44.032;20.900;2023-12-20T10:25:58;18.50;57.70
50544;DHT22;41176;44.032;20.900;2023-12-20T10:28:24;17.60;57.70
50544;DHT22;41176;44.032;20.900;2023-12-20T10:30:54;16.90;59.60
50544;DHT22;41176;44.032;20.900;2023-12-20T10:33:30;16.00;61.50
50544;DHT22;41176;44.032;20.900;2023-12-20T10:35:57;15.10;63.10
50544;DHT22;41176;44.032;20.900;2023-12-20T10:38:23;14.10;65.70
50544;DHT22;41176;44.032;20.900;2023-12-20T10:40:54;13.60;67.10
50544;DHT22;41176;44.032;20.900;2023-12-20T10:43:20;13.10;68.60
50544;DHT22;41176;44.032;20.900;2023-12-20T10:45:46;12.80;69.90
50544;DHT22;41176;44.032;20.900;2023-12-20T10:48:12;12.30;71.20
50544;DHT22;41176;44.032;20.900;2023-12-20T10:50:38;12.00;72.70
50544;DHT22;41176;44.032;20.900;2023-12-20T10:53:06;11.80;74.20
50544;DHT22;41176;44.032;20.900;2023-12-20T10:55:32;11.50;75.40
50544;DHT22;41176;44.032;20.900;2023-12-20T10:58:08;11.20;76.20
50544;DHT22;41176;44.032;20.900;2023-12-20T11:00:39;11.00;77.70
50544;DHT22;41176;44.032;20.900;2023-12-20T11:03:09;11.10;77.70
50544;DHT22;41176;44.032;20.900;2023-12-20T11:05:50;11.20;78.00
50544;DHT22;41176;44.032;20.900;2023-12-20T11:08:32;11.30;77.70
50544;DHT22;41176;44.032;20.900;2023-12-20T11:11:20;11.40;76.70
50544;DHT22;41176;44.032;20.900;2023-12-20T11:14:01;11.30;77.50
50544;DHT22;41176;44.032;20.900;2023-12-20T11:16:30;11.20;77.90
50544;DHT22;41176;44.032;20.900;2023-12-20T11:18:56;11.20;77.90
50544;DHT22;41176;44.032;20.900;2023-12-20T11:21:22;11.40;77.70
50544;DHT22;41176;44.032;20.900;2023-12-20T11:23:48;11.60;77.80
50544;DHT22;41176;44.032;20.900;2023-12-20T11:26:16;11.90;77.10
50544;DHT22;41176;44.032;20.900;2023-12-20T11:28:42;12.30;75.70
50544;DHT22;41176;44.032;20.900;2023-12-20T11:31:08;12.50;75.30
50544;DHT22;41176;44.032;20.900;2023-12-20T11:33:37;12.70;74.20
50544;DHT22;41176;44.032;20.900;2023-12-20T11:36:03;12.80;73.90
50544;DHT22;41176;44.032;20.900;2023-12-20T11:38:36;12.80;73.90
50544;DHT22;41176;44.032;20.900;2023-12-20T11:41:05;13.00;73.50
50544;DHT22;41176;44.032;20.900;2023-12-20T11:43:38;13.10;73.20
50544;DHT22;41176;44.032;20.900;2023-12-20T11:46:08;13.10;73.50
50544;DHT22;41176;44.032;20.900;2023-12-20T11:48:37;13.40;73.00
50544;DHT22;41176;44.032;20.900;2023-12-20T11:51:08;13.40;71.70
50544;DHT22;41176;44.032;20.900;2023-12-20T11:53:34;13.50;71.90
50544;DHT22;41176;44.032;20.900;2023-12-20T11:56:00;13.90;71.50
50544;DHT22;41176;44.032;20.900;2023-12-20T11:58:28;14.30;71.30
50544;DHT22;41176;44.032;20.900;2023-12-20T12:00:55;14.70;69.60
50544;DHT22;41176;44.032;20.900;2023-12-20T12:03:21;14.40;69.50
50544;DHT22;41176;44.032;20.900;2023-12-20T12:05:48;14.00;69.80
50544;DHT22;41176;44.032;20.900;2023-12-20T12:08:14;13.70;70.70
50544;DHT22;41176;44.032;20.900;2023-12-20T12:10:40;13.60;71.20
50544;DHT22;41176;44.032;20.900;2023-12-20T12:13:06;13.60;69.40
50544;DHT22;41176;44.032;20.900;2023-12-20T12:15:32;13.20;70.20
50544;DHT22;41176;44.032;20.900;2023-12-20T12:17:58;13.00;71.40
50544;DHT22;41176;44.032;20.900;2023-12-20T12:20:24;12.90;70.80
50544;DHT22;41176;44.032;20.900;2023-12-20T12:23:04;12.90;71.50
50544;DHT22;41176;44.032;20.900;2023-12-20T12:25:31;12.80;70.80
50544;DHT22;41176;44.032;20.900;2023-12-20T12:28:01;12.70;71.60
50544;DHT22;41176;44.032;20.900;2023-12-20T12:30:27;12.60;71.50
50544;DHT22;41176;44.032;20.900;2023-12-20T12:32:55;12.60;71.20
50544;DHT22;41176;44.032;20.900;2023-12-20T12:35:21;12.50;71.10
50544;DHT22;41176;44.032;20.900;2023-12-20T12:37:47;12.40;70.60
50544;DHT22;41176;44.032;20.900;2023-12-20T12:40:14;12.30;70.80
50544;DHT22;41176;44.032;20.900;2023-12-20T12:42:42;12.40;70.90
50544;DHT22;41176;44.032;20.900;2023-12-20T12:45:09;12.30;70.30
50544;DHT22;41176;44.032;20.900;2023-12-20T12:47:35;12.30;70.30
50544;DHT22;41176;44.032;20.900;2023-12-20T12:50:02;12.20;71.20
50544;DHT22;41176;44.032;20.900;2023-12-20T12:52:28;12.20;70.50
50544;DHT22;41176;44.032;20.900;2023-12-20T12:54:54;12.20;70.40
50544;DHT22;41176;44.032;20.900;2023-12-20T12:57:19;12.20;69.30
50544;DHT22;41176;44.032;20.900;2023-12-20T12:59:46;12.20;69.50
50544;DHT22;41176;44.032;20.900;2023-12-20T13:02:12;12.20;69.20
50544;DHT22;41176;44.032;20.900;2023-12-20T13:04:42;12.20;69.80
50544;DHT22;41176;44.032;20.900;2023-12-20T13:07:09;12.30;69.50
50544;DHT22;41176;44.032;20.900;2023-12-20T13:09:38;12.30;69.10
50544;DHT22;41176;44.032;20.900;2023-12-20T13:12:07;12.30;69.20
50544;DHT22;41176;44.032;20.900;2023-12-20T13:14:36;12.30;69.40
50544;DHT22;41176;44.032;20.900;2023-12-20T13:17:04;12.20;69.20
50544;DHT22;41176;44.032;20.900;2023-12-20T13:19:31;12.10;69.70
50544;DHT22;41176;44.032;20.900;2023-12-20T13:21:57;12.20;70.10
50544;DHT22;41176;44.032;20.900;2023-12-20T13:24:23;12.10;69.90
50544;DHT22;41176;44.032;20.900;2023-12-20T13:26:49;12.20;70.00
50544;DHT22;41176;44.032;20.900;2023-12-20T13:29:15;12.20;69.60
50544;DHT22;41176;44.032;20.900;2023-12-20T13:31:42;12.30;69.80
50544;DHT22;41176;44.032;20.900;2023-12-20T13:34:08;12.30;70.10
50544;DHT22;41176;44.032;20.900;2023-12-20T13:36:33;12.30;69.60
50544;DHT22;41176;44.032;20.900;2023-12-20T13:38:59;12.20;70.00
50544;DHT22;41176;44.032;20.900;2023-12-20T13:41:25;12.10;70.10
50544;DHT22;41176;44.032;20.900;2023-12-20T13:43:51;12.10;70.40
50544;DHT22;41176;44.032;20.900;2023-12-20T13:46:16;12.10;70.40
50544;DHT22;41176;44.032;20.900;2023-12-20T13:48:42;12.10;70.40
50544;DHT22;41176;44.032;20.900;2023-12-20T13:51:08;12.10;70.70
50544;DHT22;41176;44.032;20.900;2023-12-20T13:53:34;12.10;71.30
50544;DHT22;41176;44.032;20.900;2023-12-20T13:55:59;12.00;71.40
50544;DHT22;41176;44.032;20.900;2023-12-20T13:58:26;12.00;71.40
50544;DHT22;41176;44.032;20.900;2023-12-20T14:00:51;11.90;71.50
50544;DHT22;41176;44.032;20.900;2023-12-20T14:03:17;11.80;71.80
50544;DHT22;41176;44.032;20.900;2023-12-20T14:05:43;11.70;72.30
50544;DHT22;41176;44.032;20.900;2023-12-20T14:08:08;11.70;72.50
50544;DHT22;41176;44.032;20.900;2023-12-20T14:10:35;11.70;72.80
50544;DHT22;41176;44.032;20.900;2023-12-20T14:13:01;11.60;72.90
50544;DHT22;41176;44.032;20.900;2023-12-20T14:15:26;11.60;73.00
50544;DHT22;41176;44.032;20.900;2023-12-20T14:17:55;11.50;73.40
50544;DHT22;41176;44.032;20.900;2023-12-20T14:20:21;11.50;74.00
50544;DHT22;41176;44.032;20.900;2023-12-20T14:22:47;11.60;74.30
50544;DHT22;41176;44.032;20.900;2023-12-20T14:25:13;11.60;73.70
50544;DHT22;41176;44.032;20.900;2023-12-20T14:27:40;11.60;73.80
50544;DHT22;41176;44.032;20.900;2023-12-20T14:30:09;11.60;73.80
50544;DHT22;41176;44.032;20.900;2023-12-20T14:32:35;11.60;73.80
50544;DHT22;41176;44.032;20.900;2023-12-20T14:35:05;11.50;74.80
50544;DHT22;41176;44.032;20.900;2023-12-20T14:37:32;11.50;75.70
50544;DHT22;41176;44.032;20.900;2023-12-20T14:39:57;11.40;76.40
50544;DHT22;41176;44.032;20.900;2023-12-20T14:42:23;11.30;77.00
50544;DHT22;41176;44.032;20.900;2023-12-20T14:44:49;11.20;76.50
50544;DHT22;41176;44.032;20.900;2023-12-20T14:47:18;11.20;76.50
50544;DHT22;41176;44.032;20.900;2023-12-20T14:49:44;11.10;77.00
50544;DHT22;41176;44.032;20.900;2023-12-20T14:52:10;11.10;77.00
50544;DHT22;41176;44.032;20.900;2023-12-20T14:54:37;11.10;77.70
50544;DHT22;41176;44.032;20.900;2023-12-20T14:57:03;11.00;77.90
50544;DHT22;41176;44.032;20.900;2023-12-20T14:59:29;10.90;77.90
50544;DHT22;41176;44.032;20.900;2023-12-20T15:01:54;10.90;78.60
50544;DHT22;41176;44.032;20.900;2023-12-20T15:04:20;10.90;78.40
50544;DHT22;41176;44.032;20.900;2023-12-20T15:06:54;10.90;78.70
50544;DHT22;41176;44.032;20.900;2023-12-20T15:09:21;10.80;79.00
50544;DHT22;41176;44.032;20.900;2023-12-20T15:11:47;10.80;79.30
50544;DHT22;41176;44.032;20.900;2023-12-20T15:14:12;10.80;79.60
50544;DHT22;41176;44.032;20.900;2023-12-20T15:16:43;10.70;80.00
50544;DHT22;41176;44.032;20.900;2023-12-20T15:19:09;10.60;80.10
50544;DHT22;41176;44.032;20.900;2023-12-20T15:21:36;10.50;80.90